Time;durP1;ratioP1;P1;durP2;ratioP2;P2;SDS_P1;SDS_P2;PMS_P1;PMS_P2;Temp;Humidity;BMP_temperature;BMP_pressure;BME280_temperature;BME280_humidity;BME280_pressure;Samples;Min_cycle;Max_cycle;Signal;HPM_P1;HPM_P2
2021/05/06 00:05:13;;;;;;;2.00;1.50;;;;;;;21.93;51.80;99832.71;1715618;82;22162;-60
2021/05/06 00:34:20;;;;;;;2.65;1.80;;;;;;;21.84;52.03;99852.20;1780616;79;21149;-61
2021/05/06 00:36:47;;;;;;;1.67;1.32;;;;;;;21.82;52.04;99846.99;1776449;79;21189;-61
2021/05/06 00:39:19;;;;;;;2.40;1.42;;;;;;;21.82;52.07;99844.80;1750051;81;21146;-61
2021/05/06 01:03:06;;;;;;;2.75;1.75;;;;;;;21.75;52.25;99816.33;1746352;81;21110;-62
2021/05/06 01:05:47;;;;;;;2.17;1.52;;;;;;;21.75;52.28;99823.25;1743681;81;21198;-62
2021/05/06 01:08:00;;;;;;;3.87;1.75;;;;;;;21.74;52.30;99817.48;1739220;81;21137;-61
2021/05/06 01:10:43;;;;;;;2.72;1.75;;;;;;;21.74;52.31;99818.05;1741766;81;21385;-61
2021/05/06 01:13:00;;;;;;;2.17;1.62;;;;;;;21.74;52.34;99813.90;1740793;81;21190;-62
2021/05/06 01:15:27;;;;;;;2.72;1.60;;;;;;;21.72;52.35;99817.03;1742259;81;21545;-61
2021/05/06 01:17:53;;;;;;;2.27;1.70;;;;;;;21.73;52.37;99813.66;1739807;81;21190;-61
2021/05/06 01:20:20;;;;;;;2.67;1.50;;;;;;;21.71;52.42;99809.87;1743820;81;22302;-61
2021/05/06 01:22:46;;;;;;;2.17;1.55;;;;;;;21.72;52.41;99820.38;1740173;81;21641;-61
2021/05/06 01:25:13;;;;;;;2.67;1.60;;;;;;;21.71;52.45;99815.41;1767708;80;21106;-61
2021/05/06 01:28:00;;;;;;;3.47;1.60;;;;;;;21.71;52.48;99820.95;1746825;80;21472;-62
2021/05/06 01:30:31;;;;;;;2.92;1.82;;;;;;;21.71;52.51;99832.60;1749699;80;21185;-61
2021/05/06 01:32:59;;;;;;;2.50;1.67;;;;;;;21.70;52.52;99841.48;1745710;81;21118;-62
2021/05/06 01:35:35;;;;;;;2.00;1.40;;;;;;;21.69;52.55;99845.39;1739142;81;21214;-61
2021/05/06 01:40:53;;;;;;;2.70;1.57;;;;;;;21.69;52.58;99867.55;1746554;81;21597;-60
2021/05/06 01:59:22;;;;;;;2.58;1.77;;;;;;;21.62;52.71;99989.12;1777280;78;21216;-61
2021/05/06 02:01:45;;;;;;;2.40;1.70;;;;;;;21.61;52.71;99978.38;1791778;78;21617;-61
2021/05/06 02:04:11;;;;;;;2.95;1.80;;;;;;;21.60;52.75;99955.42;1755879;80;21257;-62
2021/05/06 02:06:38;;;;;;;2.72;1.70;;;;;;;21.60;52.76;99949.11;1789295;78;21203;-60
2021/05/06 02:09:24;;;;;;;2.45;1.47;;;;;;;21.59;52.78;99949.68;1711349;82;21130;-61
2021/05/06 02:11:50;;;;;;;2.20;1.52;;;;;;;21.58;52.79;99943.09;1703442;82;21141;-61
2021/05/06 02:14:17;;;;;;;2.27;1.47;;;;;;;21.58;52.82;99943.91;1699872;82;21213;-61
2021/05/06 02:16:43;;;;;;;2.47;1.80;;;;;;;21.58;52.84;99951.40;1704857;82;21286;-61
2021/05/06 02:19:09;;;;;;;2.25;1.72;;;;;;;21.57;52.84;99938.13;1672335;84;21137;-61
2021/05/06 02:21:36;;;;;;;2.62;1.52;;;;;;;21.58;52.84;99932.02;1682831;83;21154;-61
2021/05/06 02:24:03;;;;;;;2.22;1.45;;;;;;;21.57;52.85;99928.44;1699732;82;21178;-60
2021/05/06 02:26:30;;;;;;;2.27;1.57;;;;;;;21.57;52.87;99920.72;1702193;82;22180;-61
2021/05/06 02:28:56;;;;;;;2.35;1.57;;;;;;;21.56;52.87;99906.64;1675033;83;21579;-61
2021/05/06 02:31:23;;;;;;;3.35;1.70;;;;;;;21.56;52.90;99899.14;1710900;82;21134;-61
2021/05/06 02:33:49;;;;;;;1.82;1.35;;;;;;;21.56;52.91;99896.38;1701767;82;21185;-60
2021/05/06 02:36:16;;;;;;;2.37;1.50;;;;;;;21.54;52.92;99894.55;1709797;82;21139;-61
2021/05/06 02:38:42;;;;;;;3.10;1.52;;;;;;;21.53;52.93;99890.16;1749561;80;21596;-61
2021/05/06 02:41:08;;;;;;;3.98;1.70;;;;;;;21.54;52.93;99889.02;1741058;80;21022;-61
2021/05/06 02:43:35;;;;;;;2.52;1.80;;;;;;;21.54;52.95;99899.27;1742510;80;21125;-61
2021/05/06 02:46:01;;;;;;;2.85;1.50;;;;;;;21.54;52.95;99902.04;1743261;80;21469;-62
2021/05/06 02:48:28;;;;;;;2.12;1.45;;;;;;;21.53;52.97;99896.27;1750645;80;21207;-62
2021/05/06 02:51:00;;;;;;;2.22;1.50;;;;;;;21.52;52.96;99899.61;1748869;80;21292;-61
2021/05/06 02:53:29;;;;;;;2.58;1.60;;;;;;;21.52;52.99;99900.98;1743900;80;21189;-60
2021/05/06 03:03:50;;;;;;;2.10;1.37;;;;;;;21.50;53.02;99934.33;1746067;80;21632;-61
2021/05/06 03:06:30;;;;;;;2.85;1.82;;;;;;;21.49;53.00;99932.70;1745644;80;21548;-61
2021/05/06 03:08:56;;;;;;;2.95;1.70;;;;;;;21.49;53.03;99935.47;1748547;79;21172;-61
2021/05/06 03:11:35;;;;;;;2.42;1.25;;;;;;;21.48;53.04;99942.15;1740346;80;21164;-64
2021/05/06 03:24:55;;;;;;;2.62;1.50;;;;;;;21.44;53.11;99957.26;1740939;80;21164;-62
2021/05/06 03:27:27;;;;;;;2.72;1.70;;;;;;;21.43;53.11;99939.63;1740922;80;21121;-61
2021/05/06 03:30:12;;;;;;;2.80;1.60;;;;;;;21.43;53.14;99947.94;1748482;80;21217;-61
2021/05/06 03:32:39;;;;;;;3.00;1.30;;;;;;;21.41;53.16;99956.56;1738242;80;21421;-61
2021/05/06 03:35:27;;;;;;;3.67;1.67;;;;;;;21.42;53.18;99962.34;1743978;80;21168;-60
2021/05/06 03:48:59;;;;;;;2.70;1.90;;;;;;;21.38;53.24;99980.21;1744574;80;21299;-61
2021/05/06 04:18:15;;;;;;;2.30;1.87;;;;;;;21.45;53.36;100031.41;1747108;80;21158;-61
2021/05/06 04:26:08;;;;;;;4.55;2.00;;;;;;;21.53;53.45;100047.11;1746364;80;21238;-62
2021/05/06 04:38:52;;;;;;;2.60;1.80;;;;;;;21.65;53.61;100064.55;1752635;80;21152;-61
2021/05/06 04:54:59;;;;;;;3.67;1.85;;;;;;;21.77;53.67;100087.30;1739967;80;21174;-60
2021/05/06 04:57:38;;;;;;;3.47;1.77;;;;;;;21.78;53.66;100086.97;1747368;80;21154;-61
2021/05/06 05:05:20;;;;;;;5.67;1.77;;;;;;;21.83;53.64;100088.71;1745798;80;21596;-61
2021/05/06 05:07:50;;;;;;;3.58;2.00;;;;;;;21.84;53.63;100095.30;1748213;80;21525;-62
2021/05/06 05:26:18;;;;;;;3.58;2.10;;;;;;;21.92;53.63;100150.38;1810425;77;20295;-59
2021/05/06 05:28:44;;;;;;;3.45;2.05;;;;;;;21.93;53.64;100164.47;1748254;80;21041;-63
2021/05/06 05:31:11;;;;;;;3.30;2.00;;;;;;;21.94;53.62;100166.67;1747495;80;21134;-60
2021/05/06 05:33:46;;;;;;;3.65;2.05;;;;;;;21.95;53.62;100167.70;1770956;79;21199;-59
2021/05/06 05:36:14;;;;;;;2.30;1.82;;;;;;;21.98;53.62;100178.69;1748268;80;21210;-60
2021/05/06 05:38:46;;;;;;;3.22;2.12;;;;;;;21.98;53.62;100175.91;1764279;79;21391;-60
2021/05/06 05:56:43;;;;;;;3.12;1.92;;;;;;;22.08;53.52;100203.98;1748029;80;21245;-61
2021/05/06 05:59:10;;;;;;;3.47;2.22;;;;;;;22.08;53.54;100199.82;1809457;79;21188;-60
2021/05/06 06:01:36;;;;;;;5.03;2.50;;;;;;;22.09;53.54;100195.91;1804127;77;21198;-61
2021/05/06 06:04:03;;;;;;;4.10;2.80;;;;;;;22.10;53.52;100192.56;1797878;79;21623;-60
2021/05/06 06:06:30;;;;;;;3.90;2.77;;;;;;;22.10;53.49;100185.06;1805232;79;21220;-60
2021/05/06 06:08:56;;;;;;;4.28;2.65;;;;;;;22.11;53.48;100178.92;1802420;77;21604;-61
2021/05/06 06:11:23;;;;;;;3.87;2.77;;;;;;;22.12;53.43;100179.16;1810193;77;21204;-60
2021/05/06 06:13:51;;;;;;;3.90;2.52;;;;;;;22.12;53.40;100188.28;1801180;77;21291;-61
2021/05/06 06:16:27;;;;;;;3.83;3.10;;;;;;;22.14;53.35;100183.80;1790757;79;21008;-60
2021/05/06 06:18:57;;;;;;;4.25;3.00;;;;;;;22.14;53.30;100190.16;1797927;79;21207;-61
2021/05/06 06:21:45;;;;;;;9.90;3.42;;;;;;;22.15;53.27;100197.29;1803461;79;21205;-60
2021/05/06 06:24:08;;;;;;;4.28;3.00;;;;;;;22.16;53.22;100202.26;1792231;79;22108;-61
2021/05/06 06:26:35;;;;;;;4.00;3.45;;;;;;;22.15;53.18;100209.76;1795892;79;21235;-60
2021/05/06 06:29:05;;;;;;;6.10;3.47;;;;;;;22.16;53.13;100210.57;1796754;79;21183;-60
2021/05/06 06:31:36;;;;;;;4.42;3.67;;;;;;;22.15;53.08;100213.91;1800460;79;21165;-61
2021/05/06 06:33:58;;;;;;;5.33;3.77;;;;;;;22.17;53.04;100216.35;1797595;79;21173;-60
2021/05/06 06:36:25;;;;;;;5.72;3.55;;;;;;;22.16;52.97;100225.23;1794604;79;21711;-60
2021/05/06 06:38:53;;;;;;;4.72;3.77;;;;;;;22.17;52.90;100220.51;1796858;79;21903;-60
2021/05/06 06:41:19;;;;;;;4.78;3.70;;;;;;;22.17;52.84;100222.70;1795668;79;21231;-60
2021/05/06 06:43:49;;;;;;;4.97;3.35;;;;;;;22.17;52.79;100224.09;1797982;79;21569;-61
2021/05/06 06:46:16;;;;;;;5.53;3.52;;;;;;;22.18;52.77;100229.06;1798660;79;21212;-60
2021/05/06 06:48:43;;;;;;;5.75;3.85;;;;;;;22.18;52.70;100230.45;1799239;79;21230;-60
2021/05/06 06:51:09;;;;;;;5.40;3.58;;;;;;;22.19;52.65;100236.23;1789947;79;21130;-61
2021/05/06 06:53:36;;;;;;;4.20;3.65;;;;;;;22.19;52.56;100229.30;1801181;79;21721;-61
2021/05/06 06:56:03;;;;;;;4.83;3.70;;;;;;;22.18;52.51;100229.88;1750411;81;21845;-60
2021/05/06 06:58:30;;;;;;;5.12;3.80;;;;;;;22.19;52.46;100219.61;1752704;80;21566;-60
2021/05/06 07:00:57;;;;;;;4.80;3.90;;;;;;;22.20;52.41;100228.94;1761579;80;21624;-60
2021/05/06 07:03:24;;;;;;;5.62;3.27;;;;;;;22.21;52.34;100228.38;1762524;80;21908;-60
2021/05/06 07:05:50;;;;;;;4.55;3.25;;;;;;;22.21;52.28;100232.53;1797486;77;21170;-60
2021/05/06 07:08:23;;;;;;;4.80;3.87;;;;;;;22.22;52.22;100245.23;1799040;79;21524;-60
2021/05/06 07:10:52;;;;;;;3.90;3.08;;;;;;;22.22;52.17;100241.08;1806417;79;21207;-60
2021/05/06 07:13:18;;;;;;;4.12;3.42;;;;;;;22.21;52.11;100256.89;1796404;79;21188;-60
2021/05/06 07:15:53;;;;;;;4.42;3.15;;;;;;;22.22;52.08;100253.55;1801547;79;21217;-60
2021/05/06 07:18:19;;;;;;;3.77;3.08;;;;;;;22.23;52.03;100256.56;1806048;79;21083;-60
2021/05/06 07:20:46;;;;;;;4.15;3.20;;;;;;;22.23;51.97;100251.02;1801548;79;21284;-59
2021/05/06 07:23:35;;;;;;;4.53;2.95;;;;;;;22.23;51.91;100257.95;1795575;79;21108;-60
2021/05/06 07:26:01;;;;;;;5.33;3.25;;;;;;;22.23;51.87;100260.15;1733847;81;22068;-60
2021/05/06 07:28:39;;;;;;;6.33;3.33;;;;;;;22.25;51.81;100254.24;1706946;83;21225;-60
2021/05/06 07:31:09;;;;;;;4.17;3.10;;;;;;;22.26;51.77;100260.03;1729575;82;21249;-59
2021/05/06 07:33:35;;;;;;;4.60;3.45;;;;;;;;;;1707677;82;21222;-61
2021/05/06 07:36:03;;;;;;;5.33;3.83;;;;;;;22.28;51.73;100254.36;1716716;82;21189;-61
2021/05/06 07:38:31;;;;;;;5.62;3.77;;;;;;;22.29;51.77;100258.77;1707589;82;21672;-60
2021/05/06 07:41:00;;;;;;;5.22;3.90;;;;;;;22.31;51.83;100258.43;1717629;83;21891;-60
2021/05/06 07:43:30;;;;;;;5.20;4.08;;;;;;;22.33;51.91;100263.04;1707968;82;21205;-60
2021/05/06 07:45:59;;;;;;;5.33;3.90;;;;;;;22.33;51.99;100274.94;1712372;82;21245;-60
2021/05/06 07:48:25;;;;;;;5.42;3.80;;;;;;;22.37;52.07;100280.60;1722829;82;21229;-60
2021/05/06 07:50:53;;;;;;;5.80;4.05;;;;;;;22.38;52.16;100285.00;1717288;82;21381;-60
2021/05/06 07:55:59;;;;;;;7.67;3.83;;;;;;;22.46;52.29;100279.94;1874408;74;22617;-61
2021/05/06 07:58:26;;;;;;;7.28;3.67;;;;;;;22.43;52.34;100282.02;1843027;76;21018;-61
2021/05/06 08:00:53;;;;;;;6.15;3.65;;;;;;;22.44;52.39;100285.03;1842433;76;20988;-61
2021/05/06 08:03:20;;;;;;;5.75;3.77;;;;;;;22.47;52.45;100284.91;1847937;76;21103;-61
2021/05/06 08:05:51;;;;;;;4.75;3.45;;;;;;;22.47;52.51;100289.06;1842888;76;21404;-61
2021/05/06 08:08:19;;;;;;;4.67;3.15;;;;;;;22.47;52.55;100287.11;1848793;76;21435;-61
2021/05/06 08:10:50;;;;;;;4.35;3.12;;;;;;;22.48;52.61;100285.97;1851959;76;21122;-61
2021/05/06 08:13:20;;;;;;;4.83;2.98;;;;;;;22.48;52.64;100284.58;1845957;75;21184;-62
2021/05/06 08:15:49;;;;;;;4.40;2.97;;;;;;;22.49;52.69;100297.27;1851838;76;21067;-61
2021/05/06 08:18:15;;;;;;;4.33;3.17;;;;;;;22.49;52.73;100297.87;1841832;75;21185;-62
2021/05/06 08:20:42;;;;;;;4.15;2.83;;;;;;;22.50;52.76;100302.23;1846785;76;21768;-61
2021/05/06 08:23:12;;;;;;;4.37;2.85;;;;;;;22.49;52.80;100293.11;1846660;75;21420;-61
2021/05/06 08:25:40;;;;;;;3.62;2.90;;;;;;;22.49;52.83;100288.95;1854345;76;21224;-61
2021/05/06 08:28:06;;;;;;;3.42;2.47;;;;;;;22.49;52.88;100288.95;1840558;75;21589;-61
2021/05/06 08:30:34;;;;;;;4.35;3.02;;;;;;;22.49;52.90;100282.62;1858793;76;21483;-61
2021/05/06 08:33:03;;;;;;;5.20;2.60;;;;;;;22.50;52.94;100289.76;1852064;75;21169;-61
2021/05/06 08:35:29;;;;;;;3.27;2.30;;;;;;;22.50;52.95;100291.14;1853673;76;21122;-61
2021/05/06 08:37:56;;;;;;;4.17;2.20;;;;;;;22.49;52.98;100295.88;1858231;76;21188;-62
2021/05/06 08:40:22;;;;;;;4.22;2.45;;;;;;;22.49;53.04;100286.17;1852134;75;21190;-60
2021/05/06 08:42:54;;;;;;;3.50;2.20;;;;;;;22.50;53.05;100284.22;1781687;78;21146;-61
2021/05/06 08:45:30;;;;;;;4.47;2.37;;;;;;;22.49;53.08;100287.56;1803800;77;21122;-61
2021/05/06 08:47:50;;;;;;;3.98;2.30;;;;;;;22.50;53.11;100281.44;1813552;77;21126;-61
2021/05/06 08:50:17;;;;;;;3.92;2.10;;;;;;;22.50;53.14;100286.41;1808359;77;21515;-61
2021/05/06 08:52:44;;;;;;;3.17;2.08;;;;;;;22.49;53.15;100288.95;1811227;78;21149;-60
2021/05/06 08:55:11;;;;;;;3.40;2.25;;;;;;;22.50;53.16;100283.64;1814341;77;21131;-60
2021/05/06 08:57:37;;;;;;;4.12;2.10;;;;;;;22.51;53.18;100288.61;1786418;79;21190;-60
2021/05/06 09:00:06;;;;;;;3.40;1.87;;;;;;;22.51;53.18;100282.50;1811635;77;21112;-60
2021/05/06 09:02:33;;;;;;;3.27;2.22;;;;;;;22.52;53.20;100293.02;1776851;79;22105;-62
2021/05/06 09:05:07;;;;;;;2.83;1.90;;;;;;;22.53;53.21;100288.49;1778937;78;21210;-60
2021/05/06 09:07:36;;;;;;;2.60;1.82;;;;;;;22.53;53.22;100291.27;1790261;80;21132;-60
2021/05/06 09:10:02;;;;;;;2.92;1.80;;;;;;;22.52;53.22;100288.28;1787525;78;21211;-60
2021/05/06 09:12:38;;;;;;;2.22;1.80;;;;;;;22.53;53.21;100294.03;1810708;78;21114;-60
2021/05/06 09:17:49;;;;;;;3.22;1.80;;;;;;;22.57;53.21;100283.09;1862918;75;23295;-60
2021/05/06 09:20:20;;;;;;;4.80;1.90;;;;;;;22.52;53.23;100296.60;1836715;77;21431;-61
2021/05/06 09:22:55;;;;;;;1.90;1.45;;;;;;;22.52;53.22;100286.08;1833445;77;21360;-61
2021/05/06 09:25:35;;;;;;;2.20;1.57;;;;;;;22.51;53.23;100283.88;1839571;77;21027;-61
2021/05/06 09:28:19;;;;;;;4.70;2.08;;;;;;;22.52;53.23;100290.24;1835240;77;21007;-61
2021/05/06 09:31:05;;;;;;;3.12;1.55;;;;;;;22.51;53.22;100288.05;1829833;77;20977;-59
2021/05/06 09:33:40;;;;;;;2.35;1.42;;;;;;;22.51;53.22;100293.59;1836148;77;21168;-60
2021/05/06 09:36:21;;;;;;;1.72;1.40;;;;;;;22.50;53.22;100289.19;1835085;77;22078;-60
2021/05/06 09:38:51;;;;;;;1.72;1.27;;;;;;;22.51;53.22;100294.16;1835621;77;21855;-60
2021/05/06 09:41:31;;;;;;;1.70;1.27;;;;;;;22.51;53.22;100289.43;1827570;77;20918;-61
2021/05/06 09:44:16;;;;;;;2.17;1.35;;;;;;;22.51;53.18;100290.81;1832459;77;21173;-61
2021/05/06 09:46:55;;;;;;;3.52;1.50;;;;;;;22.51;53.18;100289.43;1827022;77;21474;-61
2021/05/06 09:49:15;;;;;;;2.00;1.60;;;;;;;22.52;53.19;100283.31;1831452;77;21198;-61
2021/05/06 09:52:05;;;;;;;2.52;1.60;;;;;;;22.52;53.19;100283.31;1828999;77;21153;-61
2021/05/06 09:54:31;;;;;;;1.47;1.20;;;;;;;22.51;53.16;100300.52;1856349;75;21427;-61
2021/05/06 09:57:06;;;;;;;2.20;1.20;;;;;;;22.53;53.15;100282.95;1854881;76;21497;-61
2021/05/06 09:59:38;;;;;;;2.33;1.60;;;;;;;22.53;53.14;100288.49;1857756;75;21133;-62
2021/05/06 10:02:13;;;;;;;2.15;1.10;;;;;;;22.55;53.12;100283.43;1849910;76;22729;-61
2021/05/06 10:04:44;;;;;;;2.40;1.40;;;;;;;22.57;53.10;100291.41;1851363;75;21237;-61
2021/05/06 10:07:17;;;;;;;1.95;1.32;;;;;;;22.59;53.04;100287.70;1849399;75;21110;-61
2021/05/06 10:10:02;;;;;;;1.47;1.05;;;;;;;22.60;53.02;100283.79;1856029;76;21229;-62
2021/05/06 10:12:31;;;;;;;1.80;1.30;;;;;;;22.66;52.99;100296.29;1850957;75;21149;-61
2021/05/06 10:14:58;;;;;;;1.87;1.25;;;;;;;22.68;52.94;100293.39;1852949;76;21181;-61
2021/05/06 10:17:27;;;;;;;1.80;1.30;;;;;;;22.69;52.88;100289.51;1856244;75;21176;-61
2021/05/06 10:19:54;;;;;;;2.12;1.25;;;;;;;22.71;52.87;100292.73;1862218;75;21424;-61
2021/05/06 10:22:24;;;;;;;1.90;1.30;;;;;;;22.72;52.82;100317.92;1861757;76;21134;-61
2021/05/06 10:24:50;;;;;;;2.87;1.30;;;;;;;22.74;52.78;100311.45;1862478;75;21134;-61
2021/05/06 10:27:21;;;;;;;1.22;0.80;;;;;;;22.77;52.76;100305.80;1850455;76;21568;-62
2021/05/06 10:29:52;;;;;;;1.80;1.00;;;;;;;22.79;52.72;100312.41;1784769;79;21186;-61
2021/05/06 10:32:17;;;;;;;1.92;1.20;;;;;;;22.80;52.70;100305.11;1807895;77;21146;-61
2021/05/06 10:34:45;;;;;;;1.57;0.90;;;;;;;22.83;52.67;100306.41;1785109;78;21154;-61
2021/05/06 10:37:12;;;;;;;1.82;1.02;;;;;;;22.85;52.64;100302.69;1738528;80;21107;-61
2021/05/06 10:39:44;;;;;;;1.42;1.00;;;;;;;22.86;52.62;100302.93;1803914;78;23582;-61
2021/05/06 10:42:32;;;;;;;1.72;1.00;;;;;;;22.87;52.58;100315.08;1793721;78;21147;-61
2021/05/06 10:45:16;;;;;;;1.50;1.07;;;;;;;22.90;52.53;100320.50;1791253;78;21165;-62
2021/05/06 10:47:51;;;;;;;1.60;1.00;;;;;;;22.91;52.48;100321.55;1814998;77;21111;-62
2021/05/06 10:50:26;;;;;;;1.77;0.93;;;;;;;22.94;52.44;100331.95;1779067;78;21159;-64
2021/05/06 10:52:54;;;;;;;1.30;0.80;;;;;;;22.98;52.37;100334.27;1782194;78;21431;-62
2021/05/06 10:55:50;;;;;;;3.15;1.15;;;;;;;23.01;52.33;100317.50;1794177;78;21122;-62
2021/05/06 10:58:30;;;;;;;1.40;0.90;;;;;;;23.01;52.27;100323.86;1818392;77;21142;-62
2021/05/06 11:01:16;;;;;;;1.17;0.90;;;;;;;23.02;52.24;100324.09;1786196;78;21315;-62
2021/05/06 11:03:43;;;;;;;1.02;0.90;;;;;;;23.04;52.18;100335.64;1813523;78;21536;-62
2021/05/06 11:06:34;;;;;;;2.08;0.80;;;;;;;23.05;52.15;100329.52;1805811;78;21231;-62
2021/05/06 11:09:01;;;;;;;1.82;0.93;;;;;;;23.06;52.14;100328.37;1803553;78;21249;-62
2021/05/06 11:11:27;;;;;;;1.20;0.78;;;;;;;23.06;52.08;100309.77;1785965;78;21140;-63
2021/05/06 11:14:07;;;;;;;1.17;0.90;;;;;;;23.07;52.04;100323.06;1814854;78;21134;-62
2021/05/06 11:16:37;;;;;;;1.80;0.90;;;;;;;23.08;52.04;100306.66;1815979;77;21182;-61
2021/05/06 11:19:03;;;;;;;1.35;0.90;;;;;;;23.11;52.01;100303.18;1808789;77;21131;-62
2021/05/06 11:21:34;;;;;;;1.05;0.80;;;;;;;23.14;51.97;100315.78;1812164;78;21146;-62
2021/05/06 11:24:21;;;;;;;1.87;0.80;;;;;;;23.16;51.94;100316.83;1782347;78;21139;-62
2021/05/06 11:27:10;;;;;;;1.30;0.80;;;;;;;23.18;51.88;100309.77;1809359;77;21128;-61
2021/05/06 11:29:38;;;;;;;2.52;0.95;;;;;;;23.23;51.85;100310.92;1814014;77;21593;-62
2021/05/06 11:32:33;;;;;;;1.35;0.88;;;;;;;23.26;51.75;100309.41;1802953;78;22155;-61
2021/05/06 11:34:59;;;;;;;1.10;0.70;;;;;;;23.29;51.69;100308.73;1779274;79;21597;-61
2021/05/06 11:37:27;;;;;;;1.37;0.88;;;;;;;23.32;51.63;100325.27;1807442;77;21136;-61
2021/05/06 11:40:06;;;;;;;1.35;0.90;;;;;;;23.35;51.55;100305.94;1773926;78;21071;-61
2021/05/06 11:42:38;;;;;;;1.10;0.70;;;;;;;23.38;51.52;100314.95;1797288;79;21122;-62
2021/05/06 11:45:24;;;;;;;0.98;0.70;;;;;;;23.41;51.44;100308.72;1804842;77;21195;-61
2021/05/06 11:47:51;;;;;;;0.82;0.70;;;;;;;23.45;51.37;100301.92;1790775;78;21197;-61
2021/05/06 11:50:25;;;;;;;0.88;0.65;;;;;;;23.48;51.31;100315.91;1786788;78;21502;-61
2021/05/06 11:52:52;;;;;;;0.88;0.72;;;;;;;23.50;51.23;100309.45;1807225;77;21202;-61
2021/05/06 11:55:39;;;;;;;1.72;0.80;;;;;;;23.51;51.17;100317.98;1809445;77;21126;-61
2021/05/06 11:58:07;;;;;;;13.78;2.65;;;;;;;23.54;51.14;100310.94;1811476;77;21207;-63
2021/05/06 12:00:34;;;;;;;11.33;3.12;;;;;;;23.54;51.46;100309.55;1809952;78;21202;-60
2021/05/06 12:03:04;;;;;;;6.00;2.35;;;;;;;23.52;52.27;100314.05;1810455;78;21131;-60
2021/05/06 12:05:57;;;;;;;9.33;2.87;;;;;;;23.58;52.48;100316.02;1806788;77;22109;-59
2021/05/06 12:08:44;;;;;;;11.33;2.75;;;;;;;23.62;52.49;100318.33;1781761;78;21205;-60
2021/05/06 12:11:11;;;;;;;6.40;2.35;;;;;;;23.68;52.37;100313.35;1807668;77;21593;-61
2021/05/06 12:13:38;;;;;;;8.38;3.10;;;;;;;23.73;52.26;100333.92;1797183;78;21552;-61
2021/05/06 12:16:18;;;;;;;11.55;2.87;;;;;;;23.79;52.15;100322.81;1781557;78;21209;-60
2021/05/06 12:19:05;;;;;;;11.30;3.10;;;;;;;23.83;52.07;100313.42;1799970;79;21218;-61
2021/05/06 12:21:47;;;;;;;9.90;3.15;;;;;;;23.86;51.96;100325.21;1786369;78;21151;-60
2021/05/06 12:24:42;;;;;;;8.73;2.65;;;;;;;23.91;51.93;100326.94;1808655;78;22072;-61
2021/05/06 12:27:29;;;;;;;8.40;2.52;;;;;;;23.93;51.90;100317.08;1782162;78;21169;-61
2021/05/06 12:30:05;;;;;;;7.08;2.33;;;;;;;23.96;51.88;100320.56;1812192;77;21534;-60
2021/05/06 12:32:33;;;;;;;5.85;2.12;;;;;;;23.99;51.88;100336.53;1811844;77;21128;-61
2021/05/06 12:35:00;;;;;;;7.25;2.10;;;;;;;24.02;51.85;100333.61;1811528;77;21202;-60
2021/05/06 12:37:29;;;;;;;6.37;2.10;;;;;;;24.04;51.86;100333.51;1809068;77;21632;-60
2021/05/06 12:39:56;;;;;;;6.10;1.72;;;;;;;24.07;51.85;100325.84;1812920;77;21170;-61
2021/05/06 12:42:36;;;;;;;5.30;1.67;;;;;;;24.09;51.87;100324.12;1812622;77;21096;-61
2021/05/06 12:45:06;;;;;;;5.70;2.12;;;;;;;24.12;51.88;100321.44;1815196;78;21167;-60
2021/05/06 12:47:35;;;;;;;;;;;;;;;24.16;51.90;100327.12;1779909;79;21157;-60
2021/05/06 12:50:25;;;;;;;5.80;2.10;;;;;;;24.16;51.92;100329.91;1782197;78;22140;-60
2021/05/06 12:53:07;;;;;;;7.53;2.30;;;;;;;24.18;51.94;100334.54;1803203;78;21199;-61
2021/05/06 12:55:41;;;;;;;7.15;2.02;;;;;;;24.21;51.95;100333.83;1786420;78;21217;-61
2021/05/06 12:58:13;;;;;;;3.83;1.52;;;;;;;24.24;51.97;100326.73;1781497;79;21161;-60
2021/05/06 13:00:46;;;;;;;4.83;1.80;;;;;;;24.26;51.97;100319.68;1816581;77;21108;-60
2021/05/06 13:03:14;;;;;;;4.67;2.20;;;;;;;24.30;51.97;100314.22;1768062;79;23511;-61
2021/05/06 13:05:48;;;;;;;5.12;2.30;;;;;;;24.33;51.99;100319.88;1812207;77;21124;-60
2021/05/06 13:08:15;;;;;;;5.28;1.77;;;;;;;24.36;51.99;100330.27;1808721;77;21108;-60
2021/05/06 13:10:47;;;;;;;6.25;1.82;;;;;;;24.38;52.01;100318.23;1806504;77;21093;-60
2021/05/06 13:13:34;;;;;;;7.25;2.12;;;;;;;24.41;52.00;100317.52;1780594;78;21600;-60
2021/05/06 13:16:02;;;;;;;4.05;1.60;;;;;;;24.45;51.99;100305.91;1797346;78;21217;-59
2021/05/06 13:18:28;;;;;;;5.50;1.70;;;;;;;24.47;51.98;100314.72;1803220;78;21154;-59
2021/05/06 13:20:55;;;;;;;4.87;1.82;;;;;;;24.51;52.00;100324.54;1783414;78;21518;-60
2021/05/06 13:23:34;;;;;;;4.90;1.75;;;;;;;24.54;52.00;100317.67;1794212;78;21128;-60
2021/05/06 13:26:04;;;;;;;4.45;1.45;;;;;;;24.58;52.02;100331.09;1791550;78;21193;-61
2021/05/06 13:28:43;;;;;;;3.08;1.70;;;;;;;24.62;52.01;100301.98;1783831;78;21545;-60
2021/05/06 13:31:20;;;;;;;4.92;1.60;;;;;;;24.64;51.83;100305.23;1811672;77;21162;-60
2021/05/06 13:33:50;;;;;;;5.10;1.70;;;;;;;24.64;51.48;100307.20;1786722;78;21147;-60
2021/05/06 13:39:11;;;;;;;4.30;1.72;;;;;;;24.65;50.94;100303.27;1875660;74;22684;-60
2021/05/06 13:41:44;;;;;;;3.60;1.70;;;;;;;24.58;50.83;100315.80;1808760;77;21020;-61
2021/05/06 13:44:22;;;;;;;3.85;1.80;;;;;;;24.56;50.69;100302.84;1809528;77;21202;-61
2021/05/06 13:46:54;;;;;;;3.02;1.32;;;;;;;24.54;50.55;100302.96;1785290;78;21003;-61
2021/05/06 13:49:25;;;;;;;4.75;1.57;;;;;;;24.51;50.35;100303.68;1812088;77;21064;-62
2021/05/06 13:51:52;;;;;;;3.45;1.40;;;;;;;24.50;50.13;100313.19;1789290;78;21085;-61
2021/05/06 13:54:20;;;;;;;2.25;1.10;;;;;;;24.46;49.80;100304.75;1789781;78;21118;-62
2021/05/06 13:56:46;;;;;;;3.58;1.15;;;;;;;24.49;49.48;100314.34;1794491;78;21194;-61
2021/05/06 13:59:13;;;;;;;3.00;1.00;;;;;;;24.51;49.03;100305.07;1785054;78;21210;-62
2021/05/06 14:01:39;;;;;;;1.77;0.80;;;;;;;24.55;48.71;100303.20;1808317;77;21082;-61
2021/05/06 14:04:06;;;;;;;2.67;1.10;;;;;;;24.58;48.42;100306.06;1810229;78;21195;-61
2021/05/06 14:06:36;;;;;;;3.05;1.07;;;;;;;24.62;48.23;100301.17;1786309;78;21154;-61
2021/05/06 14:09:04;;;;;;;2.00;0.90;;;;;;;24.65;48.06;100306.05;1797225;79;21200;-62
2021/05/06 14:11:31;;;;;;;2.92;1.10;;;;;;;24.67;47.93;100299.52;1795484;79;21126;-61
2021/05/06 14:13:57;;;;;;;4.12;0.95;;;;;;;24.68;47.86;100303.34;1784199;78;21200;-61
2021/05/06 14:16:24;;;;;;;1.60;0.82;;;;;;;24.70;47.80;100299.61;1794633;78;21173;-62
2021/05/06 14:18:53;;;;;;;1.77;0.90;;;;;;;24.72;47.77;100295.91;1800106;78;21154;-62
2021/05/06 14:21:22;;;;;;;2.27;0.90;;;;;;;24.74;47.76;100303.91;1796145;78;22264;-62
2021/05/06 14:23:48;;;;;;;2.87;0.82;;;;;;;24.75;47.75;100299.93;1793240;78;21163;-62
2021/05/06 14:26:15;;;;;;;1.32;0.90;;;;;;;24.76;47.78;100304.34;1797336;78;21206;-63
2021/05/06 14:28:42;;;;;;;1.72;1.00;;;;;;;24.77;47.81;100303.18;1806468;78;21177;-62
2021/05/06 14:31:09;;;;;;;2.70;1.00;;;;;;;24.77;47.84;100301.79;1805045;78;21207;-62
2021/05/06 14:33:38;;;;;;;1.57;0.80;;;;;;;24.78;47.87;100300.63;1802119;78;22231;-62
2021/05/06 14:36:09;;;;;;;2.80;0.95;;;;;;;24.77;47.92;100299.81;1789053;78;22112;-62
2021/05/06 14:38:36;;;;;;;2.77;0.80;;;;;;;24.79;47.96;100305.81;1780892;78;21038;-61
2021/05/06 14:41:03;;;;;;;2.60;0.88;;;;;;;24.78;48.00;100306.97;1789728;78;21186;-62
2021/05/06 14:43:30;;;;;;;1.55;1.20;;;;;;;24.79;48.07;100307.79;1754439;79;21531;-62
2021/05/06 14:45:57;;;;;;;0.88;0.68;;;;;;;24.78;48.12;100309.76;1796371;79;21180;-62
2021/05/06 14:48:24;;;;;;;1.60;1.00;;;;;;;24.78;48.19;100311.76;1764522;79;21179;-61
2021/05/06 14:50:50;;;;;;;1.92;0.65;;;;;;;24.78;48.26;100312.54;1789681;78;21048;-62
2021/05/06 14:53:17;;;;;;;1.20;0.70;;;;;;;24.78;48.30;100314.54;1781078;78;21402;-61
2021/05/06 14:55:43;;;;;;;1.40;0.70;;;;;;;24.77;48.39;100319.30;1781861;78;21259;-61
2021/05/06 14:58:10;;;;;;;1.82;0.80;;;;;;;24.77;48.45;100315.70;1775697;78;22083;-61
2021/05/06 15:00:36;;;;;;;8.88;3.98;;;;;;;24.77;48.51;100318.48;1787635;78;21904;-61
2021/05/06 15:03:03;;;;;;;0.60;0.50;;;;;;;24.76;48.42;100318.25;1787002;78;21181;-61
2021/05/06 15:05:29;;;;;;;0.80;0.57;;;;;;;24.68;48.21;100319.23;1776397;78;21130;-61